Stolt Shearwater — ZCRD9 — position and weather

sailwx.info

Track history (hours):
 
Tides and Currents Weather Stations Pressure Air Temp Water Temp Dewpoint Dewpoint Depression Visibility Wind Speed Wind Dir Waves Ship Positions

Stolt Shearwater

Last reported at 2014-Sep-16 11:33 UTC. Time now 2014-Sep-22 14:19 UTC.
Position N 36°41' E 014°29'.

Length 96 m; draft 5.6 m.

Type: Ship (hazmat cat B). MMSI: 319402000.

Date/timePositionNaut miles runAvg speedWind from/ knotsBaromVisibWave heightAir tempDewpointWater temp
2014-Sep-16 11:33N 36°41' E 014°29'1010.1
2014-Sep-16 10:33N 36°43' E 014°17'1110.7
2014-Sep-16 09:33N 36°46' E 014°04'1110.9
2014-Sep-16 08:32N 36°49' E 013°51'1010.3
2014-Sep-16 07:33N 36°52' E 013°38'10 9.9
2014-Sep-16 06:31N 36°54' E 013°26'9 9.8
2014-Sep-16 05:33N 36°56' E 013°15'10 9.9
2014-Sep-16 04:31N 36°59' E 013°02'10 9.9
2014-Sep-16 03:30N 37°01' E 012°50'10210.2
2014-Sep-15 17:25N 37°33' E 010°48'1010.4
2014-Sep-15 16:26N 37°39' E 010°37'7410.3
2014-Sep-15 09:15N 38°16' E 009°15'7 9.7
2014-Sep-15 08:31N 38°19' E 009°07'31110.0
2014-Sep-14 01:25N 40°42' E 003°09'3910.2
2014-Sep-13 21:33N 40°52' E 002°18'1110.5
2014-Sep-13 20:28N 40°54' E 002°04'14 0.4
2014-Sep-12 08:29N 40°58' E 001°45'9 9.3
2014-Sep-12 07:33N 40°55' E 001°56'9 9.0
2014-Sep-12 06:33N 40°52' E 002°08'9 9.2
2014-Sep-12 05:33N 40°50' E 002°20'1010.1
2014-Sep-12 04:33N 40°47' E 002°32'9 9.3
2014-Sep-12 03:33N 40°43' E 002°44'9 9.0
2014-Sep-12 02:33N 40°41' E 002°55'9 8.7
2014-Sep-12 01:33N 40°38' E 003°06'9 8.6
2014-Sep-12 00:33N 40°36' E 003°17'260 9.6
2014-Sep-10 21:32N 38°43' E 008°21'1210.5
2014-Sep-10 20:26N 38°37' E 008°34'1010.5
2014-Sep-10 19:30N 38°32' E 008°45'2010.5
2014-Sep-10 17:33N 38°23' E 009°08'1111.0
2014-Sep-10 16:33N 38°17' E 009°20'1111.5
2014-Sep-10 15:33N 38°12' E 009°33'1111.4
2014-Sep-10 14:34N 38°06' E 009°45'1111.0
2014-Sep-10 13:33N 38°01' E 009°58'1010.1
2014-Sep-10 12:33N 37°56' E 010°09'19 9.6
2014-Sep-10 10:33N 37°46' E 010°30'10 9.8
2014-Sep-10 09:33N 37°41' E 010°41'9 9.5
2014-Sep-10 08:33N 37°35' E 010°50'9 8.6
2014-Sep-10 07:32N 37°30' E 010°59'6 6.0
2014-Sep-10 06:33N 37°29' E 011°06'9 9.1
2014-Sep-10 05:33N 37°26' E 011°17'5610.9
2014-Sep-10 00:22N 36°59' E 012°19'910.6
2014-Sep-09 23:33N 36°55' E 012°29'1010.5
2014-Sep-09 22:33N 36°50' E 012°40'1110.5
2014-Sep-09 21:33N 36°45' E 012°52'1010.2
2014-Sep-09 20:33N 36°40' E 013°03'1010.5
2014-Sep-09 19:33N 36°35' E 013°15'10 9.9
2014-Sep-09 18:33N 36°31' E 013°26'10 9.6
2014-Sep-09 17:33N 36°27' E 013°36'9 9.5
2014-Sep-09 16:33N 36°22' E 013°47'10 9.6
2014-Sep-09 15:33N 36°18' E 013°57'10 9.5
2014-Sep-09 14:33N 36°13' E 014°08'1010.2
2014-Sep-09 13:33N 36°09' E 014°19'1010.3
2014-Sep-09 12:33N 36°05' E 014°31'1010.1
2014-Sep-09 11:33N 35°58' E 014°40'8 7.5
2014-Sep-09 10:33N 35°50' E 014°38'2 1.5
2014-Sep-09 09:31N 35°50' E 014°36'17 4.0
2014-Sep-09 05:15N 36°04' E 014°48'  
Track history (hours):
 
Tides and Currents Weather Stations Pressure Air Temp Water Temp Dewpoint Dewpoint Depression Visibility Wind Speed Wind Dir Waves Ship Positions

Stolt Shearwater

Last reported at 2014-Sep-16 11:33 UTC. Time now 2014-Sep-22 14:19 UTC.
Position N 36°41' E 014°29'.

Length 96 m; draft 5.6 m.

Type: Ship (hazmat cat B). MMSI: 319402000.

Date/timePositionNaut miles runAvg speedWind from/ knotsBaromVisibWave heightAir tempDewpointWater temp
2014-Sep-16 11:33N 36°41' E 014°29'1010.1
2014-Sep-16 10:33N 36°43' E 014°17'1110.7
2014-Sep-16 09:33N 36°46' E 014°04'1110.9
2014-Sep-16 08:32N 36°49' E 013°51'1010.3
2014-Sep-16 07:33N 36°52' E 013°38'10 9.9
2014-Sep-16 06:31N 36°54' E 013°26'9 9.8
2014-Sep-16 05:33N 36°56' E 013°15'10 9.9
2014-Sep-16 04:31N 36°59' E 013°02'10 9.9
2014-Sep-16 03:30N 37°01' E 012°50'10210.2
2014-Sep-15 17:25N 37°33' E 010°48'1010.4
2014-Sep-15 16:26N 37°39' E 010°37'7410.3
2014-Sep-15 09:15N 38°16' E 009°15'7 9.7
2014-Sep-15 08:31N 38°19' E 009°07'31110.0
2014-Sep-14 01:25N 40°42' E 003°09'3910.2
2014-Sep-13 21:33N 40°52' E 002°18'1110.5
2014-Sep-13 20:28N 40°54' E 002°04'14 0.4
2014-Sep-12 08:29N 40°58' E 001°45'9 9.3
2014-Sep-12 07:33N 40°55' E 001°56'9 9.0
2014-Sep-12 06:33N 40°52' E 002°08'9 9.2
2014-Sep-12 05:33N 40°50' E 002°20'1010.1
2014-Sep-12 04:33N 40°47' E 002°32'9 9.3
2014-Sep-12 03:33N 40°43' E 002°44'9 9.0
2014-Sep-12 02:33N 40°41' E 002°55'9 8.7
2014-Sep-12 01:33N 40°38' E 003°06'9 8.6
2014-Sep-12 00:33N 40°36' E 003°17'260 9.6
2014-Sep-10 21:32N 38°43' E 008°21'1210.5
2014-Sep-10 20:26N 38°37' E 008°34'1010.5
2014-Sep-10 19:30N 38°32' E 008°45'2010.5
2014-Sep-10 17:33N 38°23' E 009°08'1111.0
2014-Sep-10 16:33N 38°17' E 009°20'1111.5
2014-Sep-10 15:33N 38°12' E 009°33'1111.4
2014-Sep-10 14:34N 38°06' E 009°45'1111.0
2014-Sep-10 13:33N 38°01' E 009°58'1010.1
2014-Sep-10 12:33N 37°56' E 010°09'19 9.6
2014-Sep-10 10:33N 37°46' E 010°30'10 9.8
2014-Sep-10 09:33N 37°41' E 010°41'9 9.5
2014-Sep-10 08:33N 37°35' E 010°50'9 8.6
2014-Sep-10 07:32N 37°30' E 010°59'6 6.0
2014-Sep-10 06:33N 37°29' E 011°06'9 9.1
2014-Sep-10 05:33N 37°26' E 011°17'5610.9
2014-Sep-10 00:22N 36°59' E 012°19'910.6
2014-Sep-09 23:33N 36°55' E 012°29'1010.5
2014-Sep-09 22:33N 36°50' E 012°40'1110.5
2014-Sep-09 21:33N 36°45' E 012°52'1010.2
2014-Sep-09 20:33N 36°40' E 013°03'1010.5
2014-Sep-09 19:33N 36°35' E 013°15'10 9.9
2014-Sep-09 18:33N 36°31' E 013°26'10 9.6
2014-Sep-09 17:33N 36°27' E 013°36'9 9.5
2014-Sep-09 16:33N 36°22' E 013°47'10 9.6
2014-Sep-09 15:33N 36°18' E 013°57'10 9.5
2014-Sep-09 14:33N 36°13' E 014°08'1010.2
2014-Sep-09 13:33N 36°09' E 014°19'1010.3
2014-Sep-09 12:33N 36°05' E 014°31'1010.1
2014-Sep-09 11:33N 35°58' E 014°40'8 7.5
2014-Sep-09 10:33N 35°50' E 014°38'2 1.5
2014-Sep-09 09:31N 35°50' E 014°36'17 4.0
2014-Sep-09 05:15N 36°04' E 014°48'  

Dump ship's entire track history